sensor_id;sensor_type;location;lat;lon;timestamp;temperature;humidity
21602;DHT22;10963;50.934;4.668;2023-08-20T00:00:11;21.60;99.90
21602;DHT22;10963;50.934;4.668;2023-08-20T00:02:46;21.50;99.90
21602;DHT22;10963;50.934;4.668;2023-08-20T00:05:18;21.50;99.90
21602;DHT22;10963;50.934;4.668;2023-08-20T00:07:47;21.60;99.90
21602;DHT22;10963;50.934;4.668;2023-08-20T00:10:17;21.60;99.90
21602;DHT22;10963;50.934;4.668;2023-08-20T00:12:43;21.60;99.90
21602;DHT22;10963;50.934;4.668;2023-08-20T00:15:09;21.60;99.90
21602;DHT22;10963;50.934;4.668;2023-08-20T00:17:37;21.70;99.90
21602;DHT22;10963;50.934;4.668;2023-08-20T00:20:04;21.60;99.90
21602;DHT22;10963;50.934;4.668;2023-08-20T00:22:36;21.60;99.90
21602;DHT22;10963;50.934;4.668;2023-08-20T00:25:05;21.70;99.90
21602;DHT22;10963;50.934;4.668;2023-08-20T00:27:32;21.70;99.90
21602;DHT22;10963;50.934;4.668;2023-08-20T00:29:58;21.70;99.90
21602;DHT22;10963;50.934;4.668;2023-08-20T00:32:24;21.70;99.90
21602;DHT22;10963;50.934;4.668;2023-08-20T00:34:49;21.50;99.90
21602;DHT22;10963;50.934;4.668;2023-08-20T00:37:15;21.40;99.90
21602;DHT22;10963;50.934;4.668;2023-08-20T00:39:41;21.40;99.90
21602;DHT22;10963;50.934;4.668;2023-08-20T00:42:07;21.40;99.90
21602;DHT22;10963;50.934;4.668;2023-08-20T00:44:34;21.40;99.90
21602;DHT22;10963;50.934;4.668;2023-08-20T00:47:01;21.40;99.90
21602;DHT22;10963;50.934;4.668;2023-08-20T00:49:27;21.30;99.90
21602;DHT22;10963;50.934;4.668;2023-08-20T00:51:55;21.20;99.90
21602;DHT22;10963;50.934;4.668;2023-08-20T00:54:22;21.10;99.90
21602;DHT22;10963;50.934;4.668;2023-08-20T00:56:49;21.10;99.90
21602;DHT22;10963;50.934;4.668;2023-08-20T00:59:16;21.20;99.90
21602;DHT22;10963;50.934;4.668;2023-08-20T01:01:42;21.30;99.90
21602;DHT22;10963;50.934;4.668;2023-08-20T01:04:08;21.30;99.90
21602;DHT22;10963;50.934;4.668;2023-08-20T01:12:03;21.60;99.90
21602;DHT22;10963;50.934;4.668;2023-08-20T01:14:31;21.50;99.90
21602;DHT22;10963;50.934;4.668;2023-08-20T01:17:00;21.60;99.90
21602;DHT22;10963;50.934;4.668;2023-08-20T01:19:28;21.50;99.90
21602;DHT22;10963;50.934;4.668;2023-08-20T01:29:58;21.30;99.90
21602;DHT22;10963;50.934;4.668;2023-08-20T01:32:28;21.30;99.90
21602;DHT22;10963;50.934;4.668;2023-08-20T01:34:53;21.50;99.90
21602;DHT22;10963;50.934;4.668;2023-08-20T01:37:24;21.40;99.90
21602;DHT22;10963;50.934;4.668;2023-08-20T01:39:54;21.40;99.90
21602;DHT22;10963;50.934;4.668;2023-08-20T01:42:22;21.40;99.90
21602;DHT22;10963;50.934;4.668;2023-08-20T01:44:48;21.40;99.90
21602;DHT22;10963;50.934;4.668;2023-08-20T01:47:14;21.50;99.90
21602;DHT22;10963;50.934;4.668;2023-08-20T01:49:39;21.40;99.90
21602;DHT22;10963;50.934;4.668;2023-08-20T01:52:07;21.50;99.90
21602;DHT22;10963;50.934;4.668;2023-08-20T01:54:33;21.60;99.90
21602;DHT22;10963;50.934;4.668;2023-08-20T01:56:59;21.60;99.90
21602;DHT22;10963;50.934;4.668;2023-08-20T01:59:24;21.50;99.90
21602;DHT22;10963;50.934;4.668;2023-08-20T02:01:53;21.60;99.90
21602;DHT22;10963;50.934;4.668;2023-08-20T02:04:18;21.60;99.90
21602;DHT22;10963;50.934;4.668;2023-08-20T02:06:49;21.60;99.90
21602;DHT22;10963;50.934;4.668;2023-08-20T02:09:15;21.60;99.90
21602;DHT22;10963;50.934;4.668;2023-08-20T02:11:42;21.50;99.90
21602;DHT22;10963;50.934;4.668;2023-08-20T02:14:08;21.50;99.90
21602;DHT22;10963;50.934;4.668;2023-08-20T02:16:34;21.50;99.90
21602;DHT22;10963;50.934;4.668;2023-08-20T02:19:02;21.60;99.90
21602;DHT22;10963;50.934;4.668;2023-08-20T02:21:29;21.60;99.90
21602;DHT22;10963;50.934;4.668;2023-08-20T02:23:54;21.60;99.90
21602;DHT22;10963;50.934;4.668;2023-08-20T02:26:25;21.60;99.90
21602;DHT22;10963;50.934;4.668;2023-08-20T02:28:53;21.60;99.90
21602;DHT22;10963;50.934;4.668;2023-08-20T02:31:18;21.50;99.90
21602;DHT22;10963;50.934;4.668;2023-08-20T02:33:47;21.30;99.90
21602;DHT22;10963;50.934;4.668;2023-08-20T02:36:12;21.30;99.90
21602;DHT22;10963;50.934;4.668;2023-08-20T02:38:40;21.20;99.90
21602;DHT22;10963;50.934;4.668;2023-08-20T02:41:06;21.10;99.90
21602;DHT22;10963;50.934;4.668;2023-08-20T02:43:34;21.10;99.90
21602;DHT22;10963;50.934;4.668;2023-08-20T02:46:00;21.20;99.90
21602;DHT22;10963;50.934;4.668;2023-08-20T02:48:28;21.10;99.90
21602;DHT22;10963;50.934;4.668;2023-08-20T02:50:54;21.00;99.90
21602;DHT22;10963;50.934;4.668;2023-08-20T02:53:21;20.80;99.90
21602;DHT22;10963;50.934;4.668;2023-08-20T02:55:47;20.80;99.90
21602;DHT22;10963;50.934;4.668;2023-08-20T02:58:12;20.80;99.90
21602;DHT22;10963;50.934;4.668;2023-08-20T03:00:43;20.70;99.90
21602;DHT22;10963;50.934;4.668;2023-08-20T03:03:11;20.50;99.90
21602;DHT22;10963;50.934;4.668;2023-08-20T03:05:39;20.40;99.90
21602;DHT22;10963;50.934;4.668;2023-08-20T03:08:05;20.40;99.90
21602;DHT22;10963;50.934;4.668;2023-08-20T03:10:32;20.40;99.90
21602;DHT22;10963;50.934;4.668;2023-08-20T03:13:02;20.40;99.90
21602;DHT22;10963;50.934;4.668;2023-08-20T03:15:28;20.30;99.90
21602;DHT22;10963;50.934;4.668;2023-08-20T03:17:54;20.30;99.90
21602;DHT22;10963;50.934;4.668;2023-08-20T03:20:23;20.20;99.90
21602;DHT22;10963;50.934;4.668;2023-08-20T03:22:51;20.10;99.90
21602;DHT22;10963;50.934;4.668;2023-08-20T03:25:17;20.10;99.90
21602;DHT22;10963;50.934;4.668;2023-08-20T03:27:42;20.00;99.90
21602;DHT22;10963;50.934;4.668;2023-08-20T03:30:08;19.90;99.90
21602;DHT22;10963;50.934;4.668;2023-08-20T03:32:34;19.80;99.90
21602;DHT22;10963;50.934;4.668;2023-08-20T03:35:00;19.70;99.90
21602;DHT22;10963;50.934;4.668;2023-08-20T03:37:29;19.70;99.90
21602;DHT22;10963;50.934;4.668;2023-08-20T03:39:55;19.70;99.90
21602;DHT22;10963;50.934;4.668;2023-08-20T03:42:23;19.70;99.90
21602;DHT22;10963;50.934;4.668;2023-08-20T03:44:51;19.70;99.90
21602;DHT22;10963;50.934;4.668;2023-08-20T03:47:16;19.70;99.90
21602;DHT22;10963;50.934;4.668;2023-08-20T03:49:48;19.70;99.90
21602;DHT22;10963;50.934;4.668;2023-08-20T03:52:18;19.60;99.90
21602;DHT22;10963;50.934;4.668;2023-08-20T03:54:46;19.70;99.90
21602;DHT22;10963;50.934;4.668;2023-08-20T03:57:12;19.60;99.90
21602;DHT22;10963;50.934;4.668;2023-08-20T03:59:40;19.50;99.90
21602;DHT22;10963;50.934;4.668;2023-08-20T04:02:07;19.40;99.90
21602;DHT22;10963;50.934;4.668;2023-08-20T04:04:32;19.30;99.90
21602;DHT22;10963;50.934;4.668;2023-08-20T04:06:58;19.30;99.90
21602;DHT22;10963;50.934;4.668;2023-08-20T04:09:26;19.30;99.90
21602;DHT22;10963;50.934;4.668;2023-08-20T04:11:54;19.20;99.90
21602;DHT22;10963;50.934;4.668;2023-08-20T04:14:22;19.10;99.90
21602;DHT22;10963;50.934;4.668;2023-08-20T04:16:53;19.20;99.90
21602;DHT22;10963;50.934;4.668;2023-08-20T04:19:18;19.20;99.90
21602;DHT22;10963;50.934;4.668;2023-08-20T04:21:46;19.10;99.90
21602;DHT22;10963;50.934;4.668;2023-08-20T04:24:12;19.10;99.90
21602;DHT22;10963;50.934;4.668;2023-08-20T04:26:40;19.20;99.90
21602;DHT22;10963;50.934;4.668;2023-08-20T04:29:06;19.20;99.90
21602;DHT22;10963;50.934;4.668;2023-08-20T04:31:36;19.20;99.90
21602;DHT22;10963;50.934;4.668;2023-08-20T04:34:02;19.30;99.90
21602;DHT22;10963;50.934;4.668;2023-08-20T04:36:30;19.20;99.90
21602;DHT22;10963;50.934;4.668;2023-08-20T04:38:56;19.20;99.90
21602;DHT22;10963;50.934;4.668;2023-08-20T04:41:21;19.20;99.90
21602;DHT22;10963;50.934;4.668;2023-08-20T04:43:47;19.20;99.90
21602;DHT22;10963;50.934;4.668;2023-08-20T04:46:13;19.10;99.90
21602;DHT22;10963;50.934;4.668;2023-08-20T04:48:38;19.20;99.90
21602;DHT22;10963;50.934;4.668;2023-08-20T04:51:05;19.20;99.90
21602;DHT22;10963;50.934;4.668;2023-08-20T04:53:31;19.20;99.90
21602;DHT22;10963;50.934;4.668;2023-08-20T04:55:58;19.20;99.90
21602;DHT22;10963;50.934;4.668;2023-08-20T04:58:26;19.30;99.90
21602;DHT22;10963;50.934;4.668;2023-08-20T05:00:52;19.40;99.90
21602;DHT22;10963;50.934;4.668;2023-08-20T05:03:17;19.40;99.90
21602;DHT22;10963;50.934;4.668;2023-08-20T05:05:48;19.30;99.90
21602;DHT22;10963;50.934;4.668;2023-08-20T05:08:14;19.30;99.90
21602;DHT22;10963;50.934;4.668;2023-08-20T05:10:42;19.20;99.90
21602;DHT22;10963;50.934;4.668;2023-08-20T05:13:08;19.10;99.90
21602;DHT22;10963;50.934;4.668;2023-08-20T05:15:36;19.10;99.90
21602;DHT22;10963;50.934;4.668;2023-08-20T05:18:04;19.10;99.90
21602;DHT22;10963;50.934;4.668;2023-08-20T05:20:30;19.20;99.90
21602;DHT22;10963;50.934;4.668;2023-08-20T05:23:01;19.30;99.90
21602;DHT22;10963;50.934;4.668;2023-08-20T05:25:33;19.40;99.90
21602;DHT22;10963;50.934;4.668;2023-08-20T05:27:59;19.30;99.90
21602;DHT22;10963;50.934;4.668;2023-08-20T05:30:28;19.40;99.90
21602;DHT22;10963;50.934;4.668;2023-08-20T05:32:54;19.50;99.90
21602;DHT22;10963;50.934;4.668;2023-08-20T05:35:20;19.50;99.90
21602;DHT22;10963;50.934;4.668;2023-08-20T05:37:45;19.60;99.90
21602;DHT22;10963;50.934;4.668;2023-08-20T05:40:11;19.70;99.90
21602;DHT22;10963;50.934;4.668;2023-08-20T05:42:37;19.80;99.90
21602;DHT22;10963;50.934;4.668;2023-08-20T05:45:03;19.80;99.90
21602;DHT22;10963;50.934;4.668;2023-08-20T05:47:31;19.90;99.90
21602;DHT22;10963;50.934;4.668;2023-08-20T05:49:56;19.90;99.90
21602;DHT22;10963;50.934;4.668;2023-08-20T05:52:22;20.00;99.90
21602;DHT22;10963;50.934;4.668;2023-08-20T05:54:50;20.10;99.90
21602;DHT22;10963;50.934;4.668;2023-08-20T05:57:16;20.30;99.90
21602;DHT22;10963;50.934;4.668;2023-08-20T05:59:42;20.30;99.90
21602;DHT22;10963;50.934;4.668;2023-08-20T06:02:07;20.40;99.90
21602;DHT22;10963;50.934;4.668;2023-08-20T06:04:35;20.50;99.90
21602;DHT22;10963;50.934;4.668;2023-08-20T06:07:06;20.60;99.90
21602;DHT22;10963;50.934;4.668;2023-08-20T06:09:34;20.80;99.90
21602;DHT22;10963;50.934;4.668;2023-08-20T06:12:03;21.00;99.90
21602;DHT22;10963;50.934;4.668;2023-08-20T06:14:28;21.20;99.90
21602;DHT22;10963;50.934;4.668;2023-08-20T06:16:56;21.30;99.90
21602;DHT22;10963;50.934;4.668;2023-08-20T06:19:23;21.40;99.90
21602;DHT22;10963;50.934;4.668;2023-08-20T06:21:48;21.60;99.90
21602;DHT22;10963;50.934;4.668;2023-08-20T06:24:14;21.70;99.90
21602;DHT22;10963;50.934;4.668;2023-08-20T06:26:40;21.80;99.90
21602;DHT22;10963;50.934;4.668;2023-08-20T06:29:05;21.80;99.90
21602;DHT22;10963;50.934;4.668;2023-08-20T06:31:34;22.00;99.90
21602;DHT22;10963;50.934;4.668;2023-08-20T06:34:00;22.20;99.90
21602;DHT22;10963;50.934;4.668;2023-08-20T06:36:28;22.30;99.90
21602;DHT22;10963;50.934;4.668;2023-08-20T06:38:54;22.50;99.90
21602;DHT22;10963;50.934;4.668;2023-08-20T06:41:20;22.70;99.90
21602;DHT22;10963;50.934;4.668;2023-08-20T06:43:48;22.80;99.90
21602;DHT22;10963;50.934;4.668;2023-08-20T06:46:16;22.80;99.90
21602;DHT22;10963;50.934;4.668;2023-08-20T06:48:43;23.00;99.90
21602;DHT22;10963;50.934;4.668;2023-08-20T06:51:13;23.20;99.90
21602;DHT22;10963;50.934;4.668;2023-08-20T06:53:39;23.40;99.90
21602;DHT22;10963;50.934;4.668;2023-08-20T06:56:07;23.40;99.90
21602;DHT22;10963;50.934;4.668;2023-08-20T06:58:34;23.50;99.90
21602;DHT22;10963;50.934;4.668;2023-08-20T07:00:59;23.60;99.90
21602;DHT22;10963;50.934;4.668;2023-08-20T07:03:41;23.80;99.90
21602;DHT22;10963;50.934;4.668;2023-08-20T07:06:09;24.10;99.90
21602;DHT22;10963;50.934;4.668;2023-08-20T07:08:38;24.00;99.90
21602;DHT22;10963;50.934;4.668;2023-08-20T07:11:07;24.00;99.90
21602;DHT22;10963;50.934;4.668;2023-08-20T07:13:32;24.20;99.90
21602;DHT22;10963;50.934;4.668;2023-08-20T07:16:00;24.30;99.90
21602;DHT22;10963;50.934;4.668;2023-08-20T07:18:26;24.50;99.90
21602;DHT22;10963;50.934;4.668;2023-08-20T07:20:55;24.70;99.90
21602;DHT22;10963;50.934;4.668;2023-08-20T07:23:21;24.70;99.90
21602;DHT22;10963;50.934;4.668;2023-08-20T07:25:47;24.70;99.90
21602;DHT22;10963;50.934;4.668;2023-08-20T07:28:14;24.70;99.90
21602;DHT22;10963;50.934;4.668;2023-08-20T07:30:52;24.90;99.90
21602;DHT22;10963;50.934;4.668;2023-08-20T07:33:19;25.20;99.90
21602;DHT22;10963;50.934;4.668;2023-08-20T07:35:45;25.40;99.90
21602;DHT22;10963;50.934;4.668;2023-08-20T07:38:11;25.40;99.90
21602;DHT22;10963;50.934;4.668;2023-08-20T07:40:39;25.50;99.90
21602;DHT22;10963;50.934;4.668;2023-08-20T07:43:07;25.60;99.90
21602;DHT22;10963;50.934;4.668;2023-08-20T07:45:35;25.70;99.90
21602;DHT22;10963;50.934;4.668;2023-08-20T07:48:01;25.80;99.90
21602;DHT22;10963;50.934;4.668;2023-08-20T07:50:26;25.90;99.90
21602;DHT22;10963;50.934;4.668;2023-08-20T07:52:54;26.10;99.90
21602;DHT22;10963;50.934;4.668;2023-08-20T07:55:20;26.20;99.90
21602;DHT22;10963;50.934;4.668;2023-08-20T07:57:48;26.30;99.90
21602;DHT22;10963;50.934;4.668;2023-08-20T08:00:15;26.20;99.90
21602;DHT22;10963;50.934;4.668;2023-08-20T08:02:46;26.20;99.90
21602;DHT22;10963;50.934;4.668;2023-08-20T08:05:14;26.20;99.90
21602;DHT22;10963;50.934;4.668;2023-08-20T08:07:40;26.30;99.90
21602;DHT22;10963;50.934;4.668;2023-08-20T08:10:08;26.70;99.90
21602;DHT22;10963;50.934;4.668;2023-08-20T08:12:34;26.70;99.90
21602;DHT22;10963;50.934;4.668;2023-08-20T08:15:02;26.70;99.90
21602;DHT22;10963;50.934;4.668;2023-08-20T08:17:30;26.90;99.90
21602;DHT22;10963;50.934;4.668;2023-08-20T08:19:56;26.90;99.90
21602;DHT22;10963;50.934;4.668;2023-08-20T08:22:25;27.00;99.90
21602;DHT22;10963;50.934;4.668;2023-08-20T08:24:53;26.90;99.90
21602;DHT22;10963;50.934;4.668;2023-08-20T08:27:19;27.20;99.90
21602;DHT22;10963;50.934;4.668;2023-08-20T08:29:44;27.40;99.90
21602;DHT22;10963;50.934;4.668;2023-08-20T08:32:10;27.30;99.90
21602;DHT22;10963;50.934;4.668;2023-08-20T08:34:36;27.30;99.90
21602;DHT22;10963;50.934;4.668;2023-08-20T08:37:02;27.40;99.90
21602;DHT22;10963;50.934;4.668;2023-08-20T08:39:27;27.40;99.90
21602;DHT22;10963;50.934;4.668;2023-08-20T08:42:00;27.70;99.90
21602;DHT22;10963;50.934;4.668;2023-08-20T08:44:28;27.80;99.90
21602;DHT22;10963;50.934;4.668;2023-08-20T08:46:54;28.20;99.90
21602;DHT22;10963;50.934;4.668;2023-08-20T08:49:19;28.30;99.90
21602;DHT22;10963;50.934;4.668;2023-08-20T08:51:48;28.40;99.90
21602;DHT22;10963;50.934;4.668;2023-08-20T08:54:15;28.40;99.90
21602;DHT22;10963;50.934;4.668;2023-08-20T08:56:46;28.50;99.90
21602;DHT22;10963;50.934;4.668;2023-08-20T08:59:12;28.70;99.90
21602;DHT22;10963;50.934;4.668;2023-08-20T09:01:41;28.80;99.90
21602;DHT22;10963;50.934;4.668;2023-08-20T09:04:07;28.90;99.90
21602;DHT22;10963;50.934;4.668;2023-08-20T09:06:47;28.90;99.90
21602;DHT22;10963;50.934;4.668;2023-08-20T09:09:22;29.10;99.90
21602;DHT22;10963;50.934;4.668;2023-08-20T09:11:50;29.00;99.90
21602;DHT22;10963;50.934;4.668;2023-08-20T09:14:28;29.00;99.90
21602;DHT22;10963;50.934;4.668;2023-08-20T09:16:58;29.10;99.90
21602;DHT22;10963;50.934;4.668;2023-08-20T09:19:24;29.50;99.90
21602;DHT22;10963;50.934;4.668;2023-08-20T09:21:53;29.70;99.90
21602;DHT22;10963;50.934;4.668;2023-08-20T09:24:38;30.10;99.90
21602;DHT22;10963;50.934;4.668;2023-08-20T09:27:06;30.00;99.90
21602;DHT22;10963;50.934;4.668;2023-08-20T09:29:36;30.00;99.90
21602;DHT22;10963;50.934;4.668;2023-08-20T09:32:14;29.90;99.90
21602;DHT22;10963;50.934;4.668;2023-08-20T09:34:42;29.80;99.90
21602;DHT22;10963;50.934;4.668;2023-08-20T09:37:13;29.90;99.90
21602;DHT22;10963;50.934;4.668;2023-08-20T09:39:40;30.30;99.90
21602;DHT22;10963;50.934;4.668;2023-08-20T09:42:10;30.50;99.90
21602;DHT22;10963;50.934;4.668;2023-08-20T09:44:43;30.70;99.90
21602;DHT22;10963;50.934;4.668;2023-08-20T09:47:10;30.50;99.90
21602;DHT22;10963;50.934;4.668;2023-08-20T09:49:43;30.80;99.90
21602;DHT22;10963;50.934;4.668;2023-08-20T09:52:11;30.90;99.90
21602;DHT22;10963;50.934;4.668;2023-08-20T09:54:45;30.60;99.90
21602;DHT22;10963;50.934;4.668;2023-08-20T09:57:25;30.60;99.90
21602;DHT22;10963;50.934;4.668;2023-08-20T09:59:52;30.70;99.90
21602;DHT22;10963;50.934;4.668;2023-08-20T10:02:18;30.70;99.70
21602;DHT22;10963;50.934;4.668;2023-08-20T10:04:44;30.40;99.20
21602;DHT22;10963;50.934;4.668;2023-08-20T10:07:13;30.50;98.20
21602;DHT22;10963;50.934;4.668;2023-08-20T10:09:39;30.50;98.30
21602;DHT22;10963;50.934;4.668;2023-08-20T10:12:08;30.30;99.20
21602;DHT22;10963;50.934;4.668;2023-08-20T10:14:37;30.60;98.90
21602;DHT22;10963;50.934;4.668;2023-08-20T10:17:09;31.20;96.90
21602;DHT22;10963;50.934;4.668;2023-08-20T10:19:40;31.60;96.80
21602;DHT22;10963;50.934;4.668;2023-08-20T10:22:07;32.00;96.60
21602;DHT22;10963;50.934;4.668;2023-08-20T10:24:48;31.90;95.60
21602;DHT22;10963;50.934;4.668;2023-08-20T10:27:34;31.80;95.50
21602;DHT22;10963;50.934;4.668;2023-08-20T10:30:01;31.40;95.70
21602;DHT22;10963;50.934;4.668;2023-08-20T10:32:49;31.40;97.10
21602;DHT22;10963;50.934;4.668;2023-08-20T10:35:29;32.20;96.80
21602;DHT22;10963;50.934;4.668;2023-08-20T10:38:13;32.60;94.60
21602;DHT22;10963;50.934;4.668;2023-08-20T10:43:31;32.50;92.60
21602;DHT22;10963;50.934;4.668;2023-08-20T10:48:54;33.30;92.40
21602;DHT22;10963;50.934;4.668;2023-08-20T10:51:28;33.00;91.10
21602;DHT22;10963;50.934;4.668;2023-08-20T10:59:25;32.40;90.60
21602;DHT22;10963;50.934;4.668;2023-08-20T11:01:53;32.50;90.50
21602;DHT22;10963;50.934;4.668;2023-08-20T11:04:24;33.00;90.10
21602;DHT22;10963;50.934;4.668;2023-08-20T11:06:56;32.20;91.20
21602;DHT22;10963;50.934;4.668;2023-08-20T11:09:27;32.10;92.40
21602;DHT22;10963;50.934;4.668;2023-08-20T11:11:56;32.40;92.00
21602;DHT22;10963;50.934;4.668;2023-08-20T11:14:24;32.30;92.80
21602;DHT22;10963;50.934;4.668;2023-08-20T11:16:53;32.40;90.00
21602;DHT22;10963;50.934;4.668;2023-08-20T11:19:20;31.80;91.50
21602;DHT22;10963;50.934;4.668;2023-08-20T11:21:47;31.50;91.30
21602;DHT22;10963;50.934;4.668;2023-08-20T11:24:18;31.30;93.60
21602;DHT22;10963;50.934;4.668;2023-08-20T11:26:47;31.20;93.50
21602;DHT22;10963;50.934;4.668;2023-08-20T11:29:14;30.80;94.10
21602;DHT22;10963;50.934;4.668;2023-08-20T11:31:45;30.50;93.10
21602;DHT22;10963;50.934;4.668;2023-08-20T11:34:14;30.50;93.40
21602;DHT22;10963;50.934;4.668;2023-08-20T11:36:42;30.30;94.00
21602;DHT22;10963;50.934;4.668;2023-08-20T11:39:11;30.10;93.80
21602;DHT22;10963;50.934;4.668;2023-08-20T11:41:38;30.00;94.10
21602;DHT22;10963;50.934;4.668;2023-08-20T11:44:08;29.80;94.60
21602;DHT22;10963;50.934;4.668;2023-08-20T11:46:42;29.80;95.20
21602;DHT22;10963;50.934;4.668;2023-08-20T11:49:09;30.00;98.80
21602;DHT22;10963;50.934;4.668;2023-08-20T11:51:39;30.30;95.10
21602;DHT22;10963;50.934;4.668;2023-08-20T11:54:13;30.30;95.00
21602;DHT22;10963;50.934;4.668;2023-08-20T11:56:47;30.30;95.20
21602;DHT22;10963;50.934;4.668;2023-08-20T11:59:17;30.40;97.10
21602;DHT22;10963;50.934;4.668;2023-08-20T12:02:02;30.30;96.50
21602;DHT22;10963;50.934;4.668;2023-08-20T12:04:31;30.10;97.90
21602;DHT22;10963;50.934;4.668;2023-08-20T12:09:35;29.80;97.90
21602;DHT22;10963;50.934;4.668;2023-08-20T12:12:02;29.80;97.80
21602;DHT22;10963;50.934;4.668;2023-08-20T12:14:30;29.90;96.70
21602;DHT22;10963;50.934;4.668;2023-08-20T12:16:56;29.80;96.90
21602;DHT22;10963;50.934;4.668;2023-08-20T12:19:24;29.70;97.50
21602;DHT22;10963;50.934;4.668;2023-08-20T12:21:53;29.70;99.10
21602;DHT22;10963;50.934;4.668;2023-08-20T12:24:21;29.70;97.30
21602;DHT22;10963;50.934;4.668;2023-08-20T12:26:49;29.70;98.20
21602;DHT22;10963;50.934;4.668;2023-08-20T12:29:17;29.80;97.30
21602;DHT22;10963;50.934;4.668;2023-08-20T12:31:43;30.00;97.40
21602;DHT22;10963;50.934;4.668;2023-08-20T12:34:09;30.10;97.20
21602;DHT22;10963;50.934;4.668;2023-08-20T12:36:35;30.10;98.10
21602;DHT22;10963;50.934;4.668;2023-08-20T12:39:01;30.10;97.30
21602;DHT22;10963;50.934;4.668;2023-08-20T12:41:29;30.10;96.90
21602;DHT22;10963;50.934;4.668;2023-08-20T12:43:55;30.20;98.50
21602;DHT22;10963;50.934;4.668;2023-08-20T12:46:20;30.20;98.00
21602;DHT22;10963;50.934;4.668;2023-08-20T12:48:46;30.20;98.00
21602;DHT22;10963;50.934;4.668;2023-08-20T12:51:12;30.20;99.90
21602;DHT22;10963;50.934;4.668;2023-08-20T12:53:39;30.20;97.20
21602;DHT22;10963;50.934;4.668;2023-08-20T12:56:05;30.20;98.00
21602;DHT22;10963;50.934;4.668;2023-08-20T12:58:33;30.30;97.70
21602;DHT22;10963;50.934;4.668;2023-08-20T13:01:03;30.60;96.80
21602;DHT22;10963;50.934;4.668;2023-08-20T13:03:29;30.60;98.20
21602;DHT22;10963;50.934;4.668;2023-08-20T13:05:55;30.80;98.40
21602;DHT22;10963;50.934;4.668;2023-08-20T13:08:24;30.90;97.30
21602;DHT22;10963;50.934;4.668;2023-08-20T13:10:53;31.20;98.00
21602;DHT22;10963;50.934;4.668;2023-08-20T13:13:21;31.20;97.80
21602;DHT22;10963;50.934;4.668;2023-08-20T13:15:48;31.00;97.30
21602;DHT22;10963;50.934;4.668;2023-08-20T13:18:14;30.80;97.40
21602;DHT22;10963;50.934;4.668;2023-08-20T13:20:41;30.90;97.90
21602;DHT22;10963;50.934;4.668;2023-08-20T13:23:11;31.00;97.40
21602;DHT22;10963;50.934;4.668;2023-08-20T13:25:39;31.00;97.70
21602;DHT22;10963;50.934;4.668;2023-08-20T13:28:08;31.20;99.30
21602;DHT22;10963;50.934;4.668;2023-08-20T13:30:34;31.10;99.50
21602;DHT22;10963;50.934;4.668;2023-08-20T13:33:00;31.20;98.70
21602;DHT22;10963;50.934;4.668;2023-08-20T13:35:26;31.20;99.30
21602;DHT22;10963;50.934;4.668;2023-08-20T13:37:52;31.30;98.90
21602;DHT22;10963;50.934;4.668;2023-08-20T13:40:18;31.30;98.20
21602;DHT22;10963;50.934;4.668;2023-08-20T13:42:46;31.30;98.90
21602;DHT22;10963;50.934;4.668;2023-08-20T13:45:12;31.20;99.90
21602;DHT22;10963;50.934;4.668;2023-08-20T13:47:40;31.20;99.80
21602;DHT22;10963;50.934;4.668;2023-08-20T13:50:06;31.10;97.70
21602;DHT22;10963;50.934;4.668;2023-08-20T13:52:35;31.10;97.80
21602;DHT22;10963;50.934;4.668;2023-08-20T13:55:01;31.00;97.70
21602;DHT22;10963;50.934;4.668;2023-08-20T13:57:26;31.00;97.70
21602;DHT22;10963;50.934;4.668;2023-08-20T13:59:52;31.10;97.70
21602;DHT22;10963;50.934;4.668;2023-08-20T14:02:20;31.30;98.00
21602;DHT22;10963;50.934;4.668;2023-08-20T14:04:46;31.50;97.60
21602;DHT22;10963;50.934;4.668;2023-08-20T14:07:12;31.60;96.90
21602;DHT22;10963;50.934;4.668;2023-08-20T14:09:38;31.40;98.50
21602;DHT22;10963;50.934;4.668;2023-08-20T14:12:06;31.40;98.00
21602;DHT22;10963;50.934;4.668;2023-08-20T14:14:32;31.30;97.90
21602;DHT22;10963;50.934;4.668;2023-08-20T14:16:58;31.30;98.10
21602;DHT22;10963;50.934;4.668;2023-08-20T14:19:23;31.60;97.30
21602;DHT22;10963;50.934;4.668;2023-08-20T14:21:54;31.70;97.20
21602;DHT22;10963;50.934;4.668;2023-08-20T14:24:22;31.70;97.90
21602;DHT22;10963;50.934;4.668;2023-08-20T14:26:49;31.50;96.40
21602;DHT22;10963;50.934;4.668;2023-08-20T14:29:18;31.40;97.60
21602;DHT22;10963;50.934;4.668;2023-08-20T14:31:43;31.10;96.70
21602;DHT22;10963;50.934;4.668;2023-08-20T14:34:09;31.00;97.00
21602;DHT22;10963;50.934;4.668;2023-08-20T14:36:35;30.90;97.40
21602;DHT22;10963;50.934;4.668;2023-08-20T14:39:00;30.60;98.00
21602;DHT22;10963;50.934;4.668;2023-08-20T14:41:26;30.90;97.80
21602;DHT22;10963;50.934;4.668;2023-08-20T14:43:52;31.00;97.30
21602;DHT22;10963;50.934;4.668;2023-08-20T14:46:18;31.30;97.00
21602;DHT22;10963;50.934;4.668;2023-08-20T14:48:43;31.30;97.30
21602;DHT22;10963;50.934;4.668;2023-08-20T14:51:09;31.50;98.60
21602;DHT22;10963;50.934;4.668;2023-08-20T14:53:38;31.60;98.80
21602;DHT22;10963;50.934;4.668;2023-08-20T14:56:06;31.50;98.00
21602;DHT22;10963;50.934;4.668;2023-08-20T14:58:31;31.40;99.50
21602;DHT22;10963;50.934;4.668;2023-08-20T15:00:57;31.30;97.80
21602;DHT22;10963;50.934;4.668;2023-08-20T15:03:23;31.20;98.30
21602;DHT22;10963;50.934;4.668;2023-08-20T15:05:49;31.20;98.90
21602;DHT22;10963;50.934;4.668;2023-08-20T15:08:17;31.10;99.30
21602;DHT22;10963;50.934;4.668;2023-08-20T15:10:45;31.40;99.10
21602;DHT22;10963;50.934;4.668;2023-08-20T15:13:11;31.40;99.00
21602;DHT22;10963;50.934;4.668;2023-08-20T15:15:41;31.30;98.90
21602;DHT22;10963;50.934;4.668;2023-08-20T15:18:06;31.20;99.90
21602;DHT22;10963;50.934;4.668;2023-08-20T15:20:34;31.30;99.20
21602;DHT22;10963;50.934;4.668;2023-08-20T15:23:03;31.20;99.10
21602;DHT22;10963;50.934;4.668;2023-08-20T15:25:29;31.20;99.90
21602;DHT22;10963;50.934;4.668;2023-08-20T15:27:55;31.20;99.90
21602;DHT22;10963;50.934;4.668;2023-08-20T15:30:20;31.20;98.10
21602;DHT22;10963;50.934;4.668;2023-08-20T15:32:50;31.20;99.30
21602;DHT22;10963;50.934;4.668;2023-08-20T15:35:16;30.90;99.30
21602;DHT22;10963;50.934;4.668;2023-08-20T15:37:42;30.70;98.70
21602;DHT22;10963;50.934;4.668;2023-08-20T15:40:08;30.40;99.90
21602;DHT22;10963;50.934;4.668;2023-08-20T15:42:37;30.40;99.90
21602;DHT22;10963;50.934;4.668;2023-08-20T15:45:04;30.50;99.90
21602;DHT22;10963;50.934;4.668;2023-08-20T15:47:29;30.50;99.60
21602;DHT22;10963;50.934;4.668;2023-08-20T15:49:55;30.50;99.90
21602;DHT22;10963;50.934;4.668;2023-08-20T15:52:21;30.60;99.80
21602;DHT22;10963;50.934;4.668;2023-08-20T15:54:47;30.70;99.90
21602;DHT22;10963;50.934;4.668;2023-08-20T15:57:15;30.50;99.50
21602;DHT22;10963;50.934;4.668;2023-08-20T15:59:41;30.60;99.90